Madeline — WDE3220 — position and weather

sailwx.info

Track history (hours):
 
Tides and Currents Weather Stations Pressure Air Temp Water Temp Dewpoint Dewpoint Depression Visibility Wind Speed Wind Dir Waves Ship Positions

Madeline

Owner: TUG MADELINE, LLC, NEW CASTLE, DE. More information available from US FCC via Universal Licensing System and Coast Guard Vessel Documentation Center.

Last reported at 2017-Jun-23 10:30 UTC. Time now 2017-Jun-23 10:30 UTC.
Position N 39°48' W 075°26'.

Length 23 m; draft 4.6 m.

Type: Tug. MMSI: 367335830.

Date/timePositionNaut miles runAvg speedWind from/ knotsBaromVisibWave heightAir tempDewpointWater temp
2017-Jun-23 10:30N 39°48' W 075°26'0 0.0
2017-Jun-23 10:00N 39°48' W 075°26'0 0.0
2017-Jun-23 09:30N 39°48' W 075°26'0 0.0
2017-Jun-23 09:00N 39°48' W 075°26'0 0.0
2017-Jun-23 08:30N 39°48' W 075°26'0 0.0
2017-Jun-23 08:00N 39°48' W 075°26'0 0.0
2017-Jun-23 07:30N 39°48' W 075°26'0 0.0
2017-Jun-23 07:00N 39°48' W 075°26'0 0.0
2017-Jun-23 06:30N 39°48' W 075°26'0 0.0
2017-Jun-23 06:00N 39°48' W 075°26'0 0.0
2017-Jun-23 05:30N 39°48' W 075°26'1 2.4
2017-Jun-23 05:00N 39°49' W 075°24'0 0.0
2017-Jun-23 04:30N 39°49' W 075°24'0 0.0
2017-Jun-23 04:00N 39°49' W 075°24'0 0.6
2017-Jun-23 03:30N 39°49' W 075°24'1 1.8
2017-Jun-23 03:00N 39°48' W 075°25'1 2.8
2017-Jun-23 02:30N 39°48' W 075°27'3 5.1
2017-Jun-23 02:00N 39°49' W 075°24'4 8.6
2017-Jun-23 01:30N 39°51' W 075°19'2 4.8
2017-Jun-23 01:00N 39°51' W 075°16'0 0.0
2017-Jun-23 00:30N 39°51' W 075°16'0 0.0
2017-Jun-23 00:01N 39°51' W 075°16'0 0.0
2017-Jun-22 23:31N 39°51' W 075°16'0 0.0
2017-Jun-22 23:01N 39°51' W 075°16'0 0.0
2017-Jun-22 22:30N 39°51' W 075°16'0 0.0
2017-Jun-22 22:01N 39°51' W 075°16'0 0.0
2017-Jun-22 21:30N 39°51' W 075°16'0 0.0
2017-Jun-22 21:00N 39°51' W 075°16'0 0.0
2017-Jun-22 20:30N 39°51' W 075°16'0 0.0
2017-Jun-22 20:00N 39°51' W 075°16'0 0.0
2017-Jun-22 19:30N 39°51' W 075°16'0 0.0
2017-Jun-22 19:00N 39°51' W 075°16'0 0.6
2017-Jun-22 18:30N 39°51' W 075°16'0 0.0
2017-Jun-22 18:00N 39°51' W 075°16'1 2.4
2017-Jun-22 17:31N 39°51' W 075°18'0 0.9
2017-Jun-22 17:01N 39°51' W 075°17'3 6.5
2017-Jun-22 16:30N 39°52' W 075°13'0 0.2
2017-Jun-22 16:00N 39°52' W 075°13'2 3.8
2017-Jun-22 15:31N 39°53' W 075°11'0 0.1
2017-Jun-22 15:00N 39°53' W 075°11'0 0.0
2017-Jun-22 14:01N 39°53' W 075°11'0 0.0
2017-Jun-22 13:30N 39°53' W 075°11'0 0.0
2017-Jun-22 13:00N 39°53' W 075°11'0 0.0
2017-Jun-22 12:30N 39°53' W 075°11'0 0.0
2017-Jun-22 12:00N 39°53' W 075°11'0 0.0
2017-Jun-22 11:30N 39°53' W 075°11'0 0.0
2017-Jun-22 11:00N 39°53' W 075°11'0 0.0
2017-Jun-22 10:30N 39°53' W 075°11'0 0.0
2017-Jun-22 10:01N 39°53' W 075°11'0 0.0
2017-Jun-22 09:31N 39°53' W 075°11'0 0.0
2017-Jun-22 09:01N 39°53' W 075°11'0 0.0
2017-Jun-22 08:30N 39°53' W 075°11'0 0.0
2017-Jun-22 08:01N 39°53' W 075°11'0 0.0
2017-Jun-22 07:30N 39°53' W 075°11'0 0.0
2017-Jun-22 07:00N 39°53' W 075°11'0 0.0
2017-Jun-22 06:30N 39°53' W 075°11'0 0.0
2017-Jun-22 06:00N 39°53' W 075°11'0 0.0
2017-Jun-22 05:31N 39°53' W 075°11'0 0.0
2017-Jun-22 05:00N 39°53' W 075°11'0 0.0
2017-Jun-22 04:31N 39°53' W 075°11'0 0.0
2017-Jun-22 04:00N 39°53' W 075°11'0 0.0
2017-Jun-22 03:31N 39°53' W 075°11'0 0.0
2017-Jun-22 03:00N 39°53' W 075°11'0 0.0
2017-Jun-22 02:30N 39°53' W 075°11'0 0.0
2017-Jun-22 02:00N 39°53' W 075°11'0 0.0
2017-Jun-22 01:30N 39°53' W 075°11'0 0.0
2017-Jun-22 01:00N 39°53' W 075°11'0 0.0
2017-Jun-22 00:30N 39°53' W 075°11'0 0.0
2017-Jun-22 00:00N 39°53' W 075°11'0 0.0
2017-Jun-21 23:30N 39°53' W 075°11'0 0.0
2017-Jun-21 23:00N 39°53' W 075°11'0 0.0
2017-Jun-21 22:30N 39°53' W 075°11'0 0.0
2017-Jun-21 22:00N 39°53' W 075°11'0 0.0
2017-Jun-21 21:30N 39°53' W 075°11'0 0.0
2017-Jun-21 21:00N 39°53' W 075°11'0 0.0
2017-Jun-21 20:31N 39°53' W 075°11'4 8.1
2017-Jun-21 20:00N 39°51' W 075°16'0 1.0
2017-Jun-21 19:30N 39°51' W 075°16'0 0.0
2017-Jun-21 19:00N 39°51' W 075°16'0 0.7
2017-Jun-21 18:30N 39°51' W 075°16'0 0.0
2017-Jun-21 18:00N 39°51' W 075°16'0 0.0
2017-Jun-21 17:30N 39°51' W 075°16'0 0.0
2017-Jun-21 17:00N 39°51' W 075°16'0 0.0
2017-Jun-21 16:30N 39°51' W 075°16'0 0.1
2017-Jun-21 16:01N 39°51' W 075°16'2 4.5
2017-Jun-21 15:30N 39°52' W 075°13'0 0.0
2017-Jun-21 15:01N 39°52' W 075°13'0 0.0
2017-Jun-21 14:30N 39°52' W 075°13'1 0.6
2017-Jun-21 13:30N 39°52' W 075°14'1 1.3
2017-Jun-21 13:00N 39°52' W 075°13'2 3.7
2017-Jun-21 12:31N 39°53' W 075°11'0 0.0
2017-Jun-21 12:00N 39°53' W 075°11'0 0.0
2017-Jun-21 11:30N 39°53' W 075°11'0 0.0
2017-Jun-21 11:00N 39°53' W 075°11'0 0.0
2017-Jun-21 10:31N 39°53' W 075°11'0 0.4
2017-Jun-21 10:01N 39°53' W 075°11'2 5.0
2017-Jun-21 09:31N 39°54' W 075°08'0 0.1
2017-Jun-21 09:01N 39°54' W 075°08'0 0.6
2017-Jun-21 08:30N 39°54' W 075°08'0 0.0
2017-Jun-21 08:00N 39°54' W 075°08'0 0.0
2017-Jun-21 07:30N 39°54' W 075°08'0 0.0
2017-Jun-21 07:00N 39°54' W 075°08'0 0.0
2017-Jun-21 06:30N 39°54' W 075°08'0 0.0
2017-Jun-21 06:01N 39°54' W 075°08'0 0.0
2017-Jun-21 05:31N 39°54' W 075°08'0 0.0
2017-Jun-21 05:01N 39°54' W 075°08'0 0.0
2017-Jun-21 04:30N 39°54' W 075°08'0 0.0
2017-Jun-21 04:01N 39°54' W 075°08'0 0.0
2017-Jun-21 03:30N 39°54' W 075°08'0 0.0
2017-Jun-21 03:00N 39°54' W 075°08'2 3.2
2017-Jun-21 02:30N 39°53' W 075°10'0 0.8
2017-Jun-21 02:00N 39°53' W 075°09'0 0.1
2017-Jun-21 01:31N 39°53' W 075°09'1 1.9
2017-Jun-21 01:00N 39°53' W 075°11'1 1.2
2017-Jun-21 00:30N 39°53' W 075°11'0 0.7
2017-Jun-21 00:01N 39°53' W 075°11'0 0.0
2017-Jun-20 23:31N 39°53' W 075°11'0 0.0
2017-Jun-20 23:00N 39°53' W 075°11'0 0.0
2017-Jun-20 22:30N 39°53' W 075°11'0 0.0
2017-Jun-20 22:01N 39°53' W 075°11'0 0.0
2017-Jun-20 21:31N 39°53' W 075°11'0 0.0
2017-Jun-20 21:01N 39°53' W 075°11'0 0.0
2017-Jun-20 20:31N 39°53' W 075°11'0 0.0
2017-Jun-20 20:01N 39°53' W 075°11'3 6.2
2017-Jun-20 19:30N 39°55' W 075°08'0 0.1
2017-Jun-20 19:00N 39°55' W 075°08'3 6.0
2017-Jun-20 18:31N 39°53' W 075°11'0 0.5
2017-Jun-20 18:01N 39°53' W 075°11'0 0.0
2017-Jun-20 17:30N 39°53' W 075°11'0 0.0
2017-Jun-20 17:01N 39°53' W 075°11'0 0.0
2017-Jun-20 16:31N 39°53' W 075°11'0 0.4
2017-Jun-20 16:01N 39°53' W 075°11'0 0.3
2017-Jun-20 15:31N 39°53' W 075°12'0 0.2
2017-Jun-20 15:00N 39°53' W 075°12'0 0.2
2017-Jun-20 14:30N 39°53' W 075°11'0 0.5
2017-Jun-20 13:30N 39°53' W 075°12'1 1.6
2017-Jun-20 13:01N 39°53' W 075°11'0 0.0
2017-Jun-20 12:31N 39°53' W 075°11'0 0.0
2017-Jun-20 12:00N 39°53' W 075°11'1 1.9
2017-Jun-20 11:31N 39°53' W 075°10'2 3.7
2017-Jun-20 11:00N 39°54' W 075°08'1 1.2
2017-Jun-20 10:30N 39°54' W 075°08'1 2.2
2017-Jun-20 10:00N 39°53' W 075°09'0 1.0
2017-Jun-20 09:30N 39°53' W 075°10'1 1.7
2017-Jun-20 09:01N 39°53' W 075°11'0 0.0
2017-Jun-20 08:30N 39°53' W 075°11'0 0.0
2017-Jun-20 08:00N 39°53' W 075°11'0 0.0
2017-Jun-20 07:30N 39°53' W 075°11'0 0.0
2017-Jun-20 07:01N 39°53' W 075°11'0 0.0
2017-Jun-20 06:31N 39°53' W 075°11'0 0.0
2017-Jun-20 06:01N 39°53' W 075°11'0 0.0
2017-Jun-20 05:30N 39°53' W 075°11'0 0.0
2017-Jun-20 05:00N 39°53' W 075°11'0 0.0
2017-Jun-20 04:30N 39°53' W 075°11'0 0.0
2017-Jun-20 04:01N 39°53' W 075°11'0 0.0
2017-Jun-20 03:30N 39°53' W 075°11'0 0.0
2017-Jun-20 03:01N 39°53' W 075°11'0 0.0
2017-Jun-20 02:31N 39°53' W 075°11'0 0.0
2017-Jun-20 02:00N 39°53' W 075°11'0 0.2
2017-Jun-20 01:30N 39°53' W 075°11'0 0.1
2017-Jun-20 01:01N 39°53' W 075°11'0 0.2
2017-Jun-20 00:30N 39°53' W 075°11'0 0.0
2017-Jun-20 00:00N 39°53' W 075°11'0 0.0
2017-Jun-19 23:30N 39°53' W 075°11'0 0.0
2017-Jun-19 23:00N 39°53' W 075°11'0 0.0
2017-Jun-19 22:30N 39°53' W 075°11'0 0.0
2017-Jun-19 22:00N 39°53' W 075°11'0 0.0
2017-Jun-19 21:30N 39°53' W 075°11'2 3.8
2017-Jun-19 21:00N 39°52' W 075°13'0 0.4
2017-Jun-19 20:30N 39°52' W 075°13'0 0.0
2017-Jun-19 20:00N 39°52' W 075°13'0 0.0
2017-Jun-19 19:30N 39°52' W 075°13'0 0.0
2017-Jun-19 19:00N 39°52' W 075°13'0 0.0
2017-Jun-19 18:30N 39°52' W 075°13'0 0.0
2017-Jun-19 18:00N 39°52' W 075°13'0 0.0
2017-Jun-19 17:30N 39°52' W 075°13'0 0.0
2017-Jun-19 17:00N 39°52' W 075°13'0 0.0
2017-Jun-19 16:30N 39°52' W 075°13'4 7.7
2017-Jun-19 16:00N 39°53' W 075°09'1 2.1
2017-Jun-19 15:31N 39°54' W 075°08'2 3.5
2017-Jun-19 15:00N 39°53' W 075°10'4 4.1
2017-Jun-19 14:00N 39°51' W 075°15'5 9.2
2017-Jun-19 13:30N 39°51' W 075°20'4 8.6
2017-Jun-19 13:00N 39°48' W 075°25'0 0.0
2017-Jun-19 12:30N 39°48' W 075°25'0 0.0
2017-Jun-19 12:00N 39°48' W 075°25'1 2.2
2017-Jun-19 11:30N 39°48' W 075°26'0 0.2
2017-Jun-19 11:00N 39°48' W 075°26'1 1.3
2017-Jun-19 10:30N 39°48' W 075°26'0 0.2
2017-Jun-19 10:01N 39°48' W 075°26'0 0.0
2017-Jun-19 09:31N 39°48' W 075°26'0 0.0
2017-Jun-19 09:01N 39°48' W 075°26'0 0.0
2017-Jun-19 08:31N 39°48' W 075°26'0 0.0
2017-Jun-19 08:01N 39°48' W 075°26'0 0.0
2017-Jun-19 07:30N 39°48' W 075°26'0 0.0
2017-Jun-19 07:01N 39°48' W 075°26'0 0.0
2017-Jun-19 06:31N 39°48' W 075°26'0 0.0
2017-Jun-19 06:00N 39°48' W 075°26'0 0.0
2017-Jun-19 05:31N 39°48' W 075°26'0 0.0
2017-Jun-19 05:00N 39°48' W 075°26'0 0.0
2017-Jun-19 04:31N 39°48' W 075°26'0 0.0
2017-Jun-19 04:00N 39°48' W 075°26'0 0.0
2017-Jun-19 03:31N 39°48' W 075°26'0 0.0
2017-Jun-19 03:01N 39°48' W 075°26'0 0.0
2017-Jun-19 02:30N 39°48' W 075°26'0 0.0
2017-Jun-19 02:00N 39°48' W 075°26'0 0.0
2017-Jun-19 01:30N 39°48' W 075°26'1 2.2
2017-Jun-19 01:01N 39°49' W 075°25'0 0.2
2017-Jun-19 00:30N 39°49' W 075°24'1 1.6
2017-Jun-19 00:00N 39°49' W 075°24'3 5.3
2017-Jun-18 23:30N 39°51' W 075°21'3 6.6
2017-Jun-18 23:00N 39°51' W 075°16'0 0.6
2017-Jun-18 22:31N 39°51' W 075°16'1 2.9
2017-Jun-18 22:01N 39°51' W 075°14'3 6.2
2017-Jun-18 21:31N 39°53' W 075°11'0 0.1
2017-Jun-18 21:01N 39°53' W 075°11'0 0.0
2017-Jun-18 20:31N 39°53' W 075°11'0 0.2
2017-Jun-18 20:01N 39°53' W 075°11'0 0.0
2017-Jun-18 19:31N 39°53' W 075°11'0 0.0
2017-Jun-18 19:00N 39°53' W 075°11'0 0.0
2017-Jun-18 18:30N 39°53' W 075°11'0 0.0
2017-Jun-18 18:01N 39°53' W 075°11'0 0.0
2017-Jun-18 17:30N 39°53' W 075°11'0 0.0
2017-Jun-18 17:00N 39°53' W 075°11'0 0.0
2017-Jun-18 16:30N 39°53' W 075°11'0 0.0
2017-Jun-18 16:00N 39°53' W 075°11'0 0.0
2017-Jun-18 15:30N 39°53' W 075°11'0 0.0
2017-Jun-18 15:00N 39°53' W 075°11'0 0.0
2017-Jun-18 14:00N 39°53' W 075°11'0 0.0
2017-Jun-18 13:30N 39°53' W 075°11'0 0.0
2017-Jun-18 13:00N 39°53' W 075°11'0 0.0
2017-Jun-18 12:30N 39°53' W 075°11'0 0.0
2017-Jun-18 12:00N 39°53' W 075°11'0 0.0
2017-Jun-18 11:30N 39°53' W 075°11'0 0.0
2017-Jun-18 11:00N 39°53' W 075°11'0 0.0
2017-Jun-18 10:30N 39°53' W 075°11'0 0.0
2017-Jun-18 10:00N 39°53' W 075°11'0 0.0
2017-Jun-18 09:30N 39°53' W 075°11'0 0.0
2017-Jun-18 09:00N 39°53' W 075°11'0 0.0
2017-Jun-18 08:30N 39°53' W 075°11'0 0.0
2017-Jun-18 08:01N 39°53' W 075°11'0 0.0
2017-Jun-18 07:31N 39°53' W 075°11'0 0.0
2017-Jun-18 07:00N 39°53' W 075°11'0 0.0
2017-Jun-18 06:30N 39°53' W 075°11'0 0.0
2017-Jun-18 06:00N 39°53' W 075°11'0 0.0
2017-Jun-18 05:30N 39°53' W 075°11'0 0.0
2017-Jun-18 05:00N 39°53' W 075°11'0 0.0
2017-Jun-18 04:30N 39°53' W 075°11'0 0.0
2017-Jun-18 04:00N 39°53' W 075°11'0 0.0
2017-Jun-18 03:30N 39°53' W 075°11'0 0.0
2017-Jun-18 03:01N 39°53' W 075°11'0 0.0
2017-Jun-18 02:30N 39°53' W 075°11'0 0.0
2017-Jun-18 02:01N 39°53' W 075°11'0 0.0
2017-Jun-18 01:31N 39°53' W 075°11'0 0.0
2017-Jun-18 01:01N 39°53' W 075°11'0 0.0
2017-Jun-18 00:30N 39°53' W 075°11'0 0.0
2017-Jun-18 00:01N 39°53' W 075°11'0 0.0
2017-Jun-17 23:31N 39°53' W 075°11'0 0.0
2017-Jun-17 23:01N 39°53' W 075°11'0 0.0
2017-Jun-17 22:30N 39°53' W 075°11'0 0.0
2017-Jun-17 22:01N 39°53' W 075°11'0 0.0
2017-Jun-17 21:30N 39°53' W 075°11'0 0.0
2017-Jun-17 21:01N 39°53' W 075°11'0 0.0
2017-Jun-17 20:31N 39°53' W 075°11'0 0.0
2017-Jun-17 20:01N 39°53' W 075°11'0 0.0
2017-Jun-17 19:30N 39°53' W 075°11'0 0.0
2017-Jun-17 19:00N 39°53' W 075°11'0 0.0
2017-Jun-17 18:31N 39°53' W 075°11'0 0.0
2017-Jun-17 18:00N 39°53' W 075°11'0 0.0
2017-Jun-17 17:31N 39°53' W 075°11'0 0.0
2017-Jun-17 17:01N 39°53' W 075°11'0 0.0
2017-Jun-17 16:30N 39°53' W 075°11'0 0.0
2017-Jun-17 16:00N 39°53' W 075°11'0 0.0
2017-Jun-17 15:31N 39°53' W 075°11'0 0.0
2017-Jun-17 15:01N 39°53' W 075°11'4 7.0
2017-Jun-17 14:31N 39°51' W 075°15'1 1.1
2017-Jun-17 13:30N 39°51' W 075°16'0 0.7
2017-Jun-17 13:01N 39°51' W 075°16'0 0.0
2017-Jun-17 12:30N 39°51' W 075°16'0 0.0
2017-Jun-17 12:01N 39°51' W 075°16'0 0.0
2017-Jun-17 11:30N 39°51' W 075°16'3 6.2
2017-Jun-17 11:01N 39°51' W 075°20'5 9.7
2017-Jun-17 10:30N 39°48' W 075°25'0 0.0
2017-Jun-17 10:00N 39°48' W 075°25'0 0.0
2017-Jun-17 09:30N 39°48' W 075°25'0 0.2
2017-Jun-17 09:01N 39°48' W 075°25'2 3.6
2017-Jun-17 08:30N 39°47' W 075°27'1 2.9
2017-Jun-17 08:00N 39°48' W 075°26'0 0.5
2017-Jun-17 07:30N 39°48' W 075°26'0 0.0
2017-Jun-17 07:00N 39°48' W 075°26'0 0.0
2017-Jun-17 06:30N 39°48' W 075°26'0 0.0
2017-Jun-17 06:00N 39°48' W 075°26'0 0.0
2017-Jun-17 05:30N 39°48' W 075°26'0 0.0
2017-Jun-17 05:00N 39°48' W 075°26'0 0.0
2017-Jun-17 04:30N 39°48' W 075°26'0 0.0
2017-Jun-17 04:00N 39°48' W 075°26'0 0.0
2017-Jun-17 03:31N 39°48' W 075°26'0 0.0
2017-Jun-17 03:00N 39°48' W 075°26'0 0.0
2017-Jun-17 02:30N 39°48' W 075°26'0 0.0
2017-Jun-17 02:00N 39°48' W 075°26'0 0.0
2017-Jun-17 01:31N 39°48' W 075°26'0 0.0
2017-Jun-17 01:00N 39°48' W 075°26'0 0.0
2017-Jun-17 00:30N 39°48' W 075°26'0 0.0
2017-Jun-17 00:00N 39°48' W 075°26'0 0.0
2017-Jun-16 23:31N 39°48' W 075°26'0 0.0
2017-Jun-16 23:00N 39°48' W 075°26'1 2.4
2017-Jun-16 22:30N 39°49' W 075°24'0 0.0
2017-Jun-16 22:00N 39°49' W 075°24'0 0.0
2017-Jun-16 21:31N 39°49' W 075°24'1 1.5
2017-Jun-16 21:00N 39°48' W 075°25'0 0.8
2017-Jun-16 20:30N 39°48' W 075°25'0 0.8
2017-Jun-16 20:00N 39°49' W 075°24'1 1.5
2017-Jun-16 19:30N 39°49' W 075°24'4 8.4
2017-Jun-16 19:00N 39°51' W 075°19'4 7.8
2017-Jun-16 18:31N 39°52' W 075°14'3 5.0
2017-Jun-16 18:00N 39°53' W 075°11'0 0.0
2017-Jun-16 17:30N 39°53' W 075°11'0 0.0
2017-Jun-16 17:00N 39°53' W 075°11'0 0.0
2017-Jun-16 16:30N 39°53' W 075°11'0 0.0
2017-Jun-16 16:01N 39°53' W 075°11'0 0.0
2017-Jun-16 15:31N 39°53' W 075°11'0 0.0
2017-Jun-16 15:00N 39°53' W 075°11'0 0.0
2017-Jun-16 14:31N 39°53' W 075°11'0 0.0
2017-Jun-16 13:31N 39°53' W 075°11'0 0.0
2017-Jun-16 13:01N 39°53' W 075°11'0 0.0
2017-Jun-16 12:30N 39°53' W 075°11'0 0.0
2017-Jun-16 12:00N 39°53' W 075°11'0 0.0
2017-Jun-16 11:31N 39°53' W 075°11'0 0.7
2017-Jun-16 11:01N 39°53' W 075°11'0 0.5
2017-Jun-16 10:30N 39°53' W 075°12'0 0.0
2017-Jun-16 10:00N 39°53' W 075°12'0 0.6
2017-Jun-16 09:30N 39°53' W 075°11'0 0.0
2017-Jun-16 09:01N 39°53' W 075°11'0 0.0
2017-Jun-16 08:30N 39°53' W 075°11'0 0.0
2017-Jun-16 08:00N 39°53' W 075°11'0 0.0
2017-Jun-16 07:30N 39°53' W 075°11'0 0.0
2017-Jun-16 07:00N 39°53' W 075°11'0 0.0
2017-Jun-16 06:31N 39°53' W 075°11'0 0.0
2017-Jun-16 06:01N 39°53' W 075°11'0 0.0
2017-Jun-16 05:31N 39°53' W 075°11'0 0.0
2017-Jun-16 05:01N 39°53' W 075°11'0 0.0
2017-Jun-16 04:30N 39°53' W 075°11'0 0.0
2017-Jun-16 04:01N 39°53' W 075°11'0 0.0
2017-Jun-16 03:31N 39°53' W 075°11'0 0.0
2017-Jun-16 03:00N 39°53' W 075°11'0 0.0
2017-Jun-16 02:30N 39°53' W 075°11'0 0.0
2017-Jun-16 02:01N 39°53' W 075°11'0 0.0
2017-Jun-16 01:30N 39°53' W 075°11'0 0.0
2017-Jun-16 01:01N 39°53' W 075°11'2 4.3
2017-Jun-16 00:30N 39°54' W 075°08'0 0.1
2017-Jun-16 00:01N 39°54' W 075°08'2 4.1
2017-Jun-15 23:31N 39°53' W 075°11'0 0.8
2017-Jun-15 23:00N 39°53' W 075°11'0 0.0
2017-Jun-15 22:30N 39°53' W 075°11'0 0.0
2017-Jun-15 22:01N 39°53' W 075°11'0 0.0
2017-Jun-15 21:30N 39°53' W 075°11'0 0.0
2017-Jun-15 21:00N 39°53' W 075°11'0 0.0
2017-Jun-15 20:30N 39°53' W 075°11'2 3.0
2017-Jun-15 20:00N 39°53' W 075°09'4 7.4
2017-Jun-15 19:30N 39°57' W 075°08'4 7.7
2017-Jun-15 19:00N 39°59' W 075°04'4 8.2
2017-Jun-15 18:30N 40°02' W 075°00'510.5
2017-Jun-15 18:00N 40°04' W 074°54'1 0.4
2017-Jun-15 14:34N 40°05' W 074°53'4 7.7
2017-Jun-15 14:00N 40°03' W 074°58'4 8.5
2017-Jun-15 13:30N 40°01' W 075°03'3 7.0
2017-Jun-15 13:00N 39°58' W 075°06'4 7.5
2017-Jun-15 12:31N 39°55' W 075°08'3 5.9
2017-Jun-15 12:01N 39°53' W 075°11'5 9.0
2017-Jun-15 11:30N 39°57' W 075°08'3 5.1
2017-Jun-15 11:00N 39°59' W 075°06'0 0.6
2017-Jun-15 10:30N 39°58' W 075°06'2 4.0
2017-Jun-15 10:01N 39°57' W 075°08'2 4.6
2017-Jun-15 09:31N 39°59' W 075°06'0 0.1
2017-Jun-15 09:00N 39°59' W 075°05'0 0.0
2017-Jun-15 08:30N 39°59' W 075°05'0 0.0
2017-Jun-15 08:00N 39°59' W 075°05'0 0.0
2017-Jun-15 07:31N 39°59' W 075°05'0 0.0
2017-Jun-15 07:00N 39°59' W 075°05'0 0.0
2017-Jun-15 06:30N 39°59' W 075°05'1 2.2
2017-Jun-15 06:00N 39°58' W 075°07'5 9.4
2017-Jun-15 05:30N 39°54' W 075°08'0 0.2
2017-Jun-15 05:01N 39°54' W 075°08'0 0.6
2017-Jun-15 04:31N 39°53' W 075°08'1 1.0
2017-Jun-15 04:00N 39°54' W 075°08'0 0.0
2017-Jun-15 03:30N 39°54' W 075°08'0 0.0
2017-Jun-15 03:01N 39°54' W 075°08'0 0.0
2017-Jun-15 02:30N 39°54' W 075°08'0 0.0
2017-Jun-15 02:01N 39°54' W 075°08'5 9.5
2017-Jun-15 01:31N 39°58' W 075°06'1 2.8
2017-Jun-15 01:00N 39°59' W 075°04'0 0.0
2017-Jun-15 00:30N 39°59' W 075°04'1 1.7
2017-Jun-15 00:01N 39°59' W 075°05'0 0.1
2017-Jun-14 23:30N 39°59' W 075°05'0 0.0
2017-Jun-14 23:00N 39°59' W 075°05'0 0.0
2017-Jun-14 22:30N 39°59' W 075°05'1 1.5
2017-Jun-14 22:00N 39°58' W 075°06'5 9.3
2017-Jun-14 21:30N 39°54' W 075°08'0 0.4
2017-Jun-14 21:00N 39°54' W 075°08'2 3.8
2017-Jun-14 20:30N 39°53' W 075°10'1 1.7
2017-Jun-14 20:00N 39°53' W 075°11'0 0.0
2017-Jun-14 19:30N 39°53' W 075°11'0 0.0
2017-Jun-14 19:00N 39°53' W 075°11'0 0.0
2017-Jun-14 18:31N 39°53' W 075°11'1 2.6
2017-Jun-14 18:00N 39°52' W 075°12'0 0.2
2017-Jun-14 17:30N 39°52' W 075°12'1 2.6
2017-Jun-14 17:00N 39°53' W 075°11'0 0.0
2017-Jun-14 16:30N 39°53' W 075°11'0 0.0
2017-Jun-14 16:00N 39°53' W 075°11'0 0.0
2017-Jun-14 15:30N 39°53' W 075°11'0 0.0
2017-Jun-14 15:01N 39°53' W 075°11'0 0.0
2017-Jun-14 14:30N 39°53' W 075°11'0 0.0
2017-Jun-14 13:31N 39°53' W 075°11'0 0.0
2017-Jun-14 13:01N 39°53' W 075°11'0 0.0
2017-Jun-14 12:30N 39°53' W 075°11'0 0.0
2017-Jun-14 12:00N 39°53' W 075°11'0 0.0
2017-Jun-14 11:30N 39°53' W 075°11'0 0.0
2017-Jun-14 11:01N 39°53' W 075°11'0 0.0
2017-Jun-14 10:30N 39°53' W 075°11'0 0.0
2017-Jun-14 10:00N 39°53' W 075°11'0 0.0
2017-Jun-14 09:30N 39°53' W 075°11'0 0.0
2017-Jun-14 09:00N 39°53' W 075°11'0 0.0
2017-Jun-14 08:30N 39°53' W 075°11'0 0.0
2017-Jun-14 08:00N 39°53' W 075°11'0 0.0
2017-Jun-14 07:30N 39°53' W 075°11'0 0.0
2017-Jun-14 07:00N 39°53' W 075°11'0 0.0
2017-Jun-14 06:30N 39°53' W 075°11'0 0.0
2017-Jun-14 06:00N 39°53' W 075°11'0 0.0
2017-Jun-14 05:30N 39°53' W 075°11'3 5.2
2017-Jun-14 05:01N 39°54' W 075°08'0 0.6
2017-Jun-14 04:30N 39°54' W 075°08'1 2.9
2017-Jun-14 04:01N 39°53' W 075°10'1 2.1
2017-Jun-14 03:31N 39°53' W 075°11'0 0.4
2017-Jun-14 03:00N 39°53' W 075°11'0 0.0
2017-Jun-14 02:31N 39°53' W 075°11'0 0.0
2017-Jun-14 02:00N 39°53' W 075°11'0 0.0
2017-Jun-14 01:30N 39°53' W 075°11'0 0.0
2017-Jun-14 01:01N 39°53' W 075°11'0 0.0
2017-Jun-14 00:31N 39°53' W 075°11'0 0.0
2017-Jun-14 00:01N 39°53' W 075°11'0 0.0
2017-Jun-13 23:31N 39°53' W 075°11'0 0.0
2017-Jun-13 23:01N 39°53' W 075°11'0 0.0
2017-Jun-13 22:30N 39°53' W 075°11'2 4.1
2017-Jun-13 22:00N 39°52' W 075°13'2 5.0
2017-Jun-13 21:30N 39°51' W 075°16'0 0.1
2017-Jun-13 21:00N 39°51' W 075°16'2 4.2
2017-Jun-13 20:30N 39°52' W 075°14'2 4.9
2017-Jun-13 20:00N 39°53' W 075°11'0 0.0
2017-Jun-13 19:30N 39°53' W 075°11'0 0.0
2017-Jun-13 19:00N 39°53' W 075°11'0 0.0
2017-Jun-13 18:30N 39°53' W 075°11'0 0.0
2017-Jun-13 18:01N 39°53' W 075°11'0 0.0
2017-Jun-13 17:31N 39°53' W 075°11'0 0.0
2017-Jun-13 17:01N 39°53' W 075°11'0 0.0
2017-Jun-13 16:31N 39°53' W 075°11'0 0.0
2017-Jun-13 16:00N 39°53' W 075°11'0 0.0
2017-Jun-13 15:31N 39°53' W 075°11'0 0.0
2017-Jun-13 15:00N 39°53' W 075°11'0 0.0
2017-Jun-13 14:00N 39°53' W 075°11'0 0.0
2017-Jun-13 13:30N 39°53' W 075°11'0 0.0
2017-Jun-13 13:00N 39°53' W 075°11'0 0.0
2017-Jun-13 12:31N 39°53' W 075°11'0 0.0
2017-Jun-13 12:01N 39°53' W 075°11'0 0.0
2017-Jun-13 11:30N 39°53' W 075°11'0 0.0
2017-Jun-13 11:00N 39°53' W 075°11'  
Track history (hours):
 
Tides and Currents Weather Stations Pressure Air Temp Water Temp Dewpoint Dewpoint Depression Visibility Wind Speed Wind Dir Waves Ship Positions

Madeline

Owner: TUG MADELINE, LLC, NEW CASTLE, DE. More information available from US FCC via Universal Licensing System and Coast Guard Vessel Documentation Center.

Last reported at 2017-Jun-23 10:30 UTC. Time now 2017-Jun-23 10:30 UTC.
Position N 39°48' W 075°26'.

Length 23 m; draft 4.6 m.

Type: Tug. MMSI: 367335830.

Date/timePositionNaut miles runAvg speedWind from/ knotsBaromVisibWave heightAir tempDewpointWater temp
2017-Jun-23 10:30N 39°48' W 075°26'0 0.0
2017-Jun-23 10:00N 39°48' W 075°26'0 0.0
2017-Jun-23 09:30N 39°48' W 075°26'0 0.0
2017-Jun-23 09:00N 39°48' W 075°26'0 0.0
2017-Jun-23 08:30N 39°48' W 075°26'0 0.0
2017-Jun-23 08:00N 39°48' W 075°26'0 0.0
2017-Jun-23 07:30N 39°48' W 075°26'0 0.0
2017-Jun-23 07:00N 39°48' W 075°26'0 0.0
2017-Jun-23 06:30N 39°48' W 075°26'0 0.0
2017-Jun-23 06:00N 39°48' W 075°26'0 0.0
2017-Jun-23 05:30N 39°48' W 075°26'1 2.4
2017-Jun-23 05:00N 39°49' W 075°24'0 0.0
2017-Jun-23 04:30N 39°49' W 075°24'0 0.0
2017-Jun-23 04:00N 39°49' W 075°24'0 0.6
2017-Jun-23 03:30N 39°49' W 075°24'1 1.8
2017-Jun-23 03:00N 39°48' W 075°25'1 2.8
2017-Jun-23 02:30N 39°48' W 075°27'3 5.1
2017-Jun-23 02:00N 39°49' W 075°24'4 8.6
2017-Jun-23 01:30N 39°51' W 075°19'2 4.8
2017-Jun-23 01:00N 39°51' W 075°16'0 0.0
2017-Jun-23 00:30N 39°51' W 075°16'0 0.0
2017-Jun-23 00:01N 39°51' W 075°16'0 0.0
2017-Jun-22 23:31N 39°51' W 075°16'0 0.0
2017-Jun-22 23:01N 39°51' W 075°16'0 0.0
2017-Jun-22 22:30N 39°51' W 075°16'0 0.0
2017-Jun-22 22:01N 39°51' W 075°16'0 0.0
2017-Jun-22 21:30N 39°51' W 075°16'0 0.0
2017-Jun-22 21:00N 39°51' W 075°16'0 0.0
2017-Jun-22 20:30N 39°51' W 075°16'0 0.0
2017-Jun-22 20:00N 39°51' W 075°16'0 0.0
2017-Jun-22 19:30N 39°51' W 075°16'0 0.0
2017-Jun-22 19:00N 39°51' W 075°16'0 0.6
2017-Jun-22 18:30N 39°51' W 075°16'0 0.0
2017-Jun-22 18:00N 39°51' W 075°16'1 2.4
2017-Jun-22 17:31N 39°51' W 075°18'0 0.9
2017-Jun-22 17:01N 39°51' W 075°17'3 6.5
2017-Jun-22 16:30N 39°52' W 075°13'0 0.2
2017-Jun-22 16:00N 39°52' W 075°13'2 3.8
2017-Jun-22 15:31N 39°53' W 075°11'0 0.1
2017-Jun-22 15:00N 39°53' W 075°11'0 0.0
2017-Jun-22 14:01N 39°53' W 075°11'0 0.0
2017-Jun-22 13:30N 39°53' W 075°11'0 0.0
2017-Jun-22 13:00N 39°53' W 075°11'0 0.0
2017-Jun-22 12:30N 39°53' W 075°11'0 0.0
2017-Jun-22 12:00N 39°53' W 075°11'0 0.0
2017-Jun-22 11:30N 39°53' W 075°11'0 0.0
2017-Jun-22 11:00N 39°53' W 075°11'0 0.0
2017-Jun-22 10:30N 39°53' W 075°11'0 0.0
2017-Jun-22 10:01N 39°53' W 075°11'0 0.0
2017-Jun-22 09:31N 39°53' W 075°11'0 0.0
2017-Jun-22 09:01N 39°53' W 075°11'0 0.0
2017-Jun-22 08:30N 39°53' W 075°11'0 0.0
2017-Jun-22 08:01N 39°53' W 075°11'0 0.0
2017-Jun-22 07:30N 39°53' W 075°11'0 0.0
2017-Jun-22 07:00N 39°53' W 075°11'0 0.0
2017-Jun-22 06:30N 39°53' W 075°11'0 0.0
2017-Jun-22 06:00N 39°53' W 075°11'0 0.0
2017-Jun-22 05:31N 39°53' W 075°11'0 0.0
2017-Jun-22 05:00N 39°53' W 075°11'0 0.0
2017-Jun-22 04:31N 39°53' W 075°11'0 0.0
2017-Jun-22 04:00N 39°53' W 075°11'0 0.0
2017-Jun-22 03:31N 39°53' W 075°11'0 0.0
2017-Jun-22 03:00N 39°53' W 075°11'0 0.0
2017-Jun-22 02:30N 39°53' W 075°11'0 0.0
2017-Jun-22 02:00N 39°53' W 075°11'0 0.0
2017-Jun-22 01:30N 39°53' W 075°11'0 0.0
2017-Jun-22 01:00N 39°53' W 075°11'0 0.0
2017-Jun-22 00:30N 39°53' W 075°11'0 0.0
2017-Jun-22 00:00N 39°53' W 075°11'0 0.0
2017-Jun-21 23:30N 39°53' W 075°11'0 0.0
2017-Jun-21 23:00N 39°53' W 075°11'0 0.0
2017-Jun-21 22:30N 39°53' W 075°11'0 0.0
2017-Jun-21 22:00N 39°53' W 075°11'0 0.0
2017-Jun-21 21:30N 39°53' W 075°11'0 0.0
2017-Jun-21 21:00N 39°53' W 075°11'0 0.0
2017-Jun-21 20:31N 39°53' W 075°11'4 8.1
2017-Jun-21 20:00N 39°51' W 075°16'0 1.0
2017-Jun-21 19:30N 39°51' W 075°16'0 0.0
2017-Jun-21 19:00N 39°51' W 075°16'0 0.7
2017-Jun-21 18:30N 39°51' W 075°16'0 0.0
2017-Jun-21 18:00N 39°51' W 075°16'0 0.0
2017-Jun-21 17:30N 39°51' W 075°16'0 0.0
2017-Jun-21 17:00N 39°51' W 075°16'0 0.0
2017-Jun-21 16:30N 39°51' W 075°16'0 0.1
2017-Jun-21 16:01N 39°51' W 075°16'2 4.5
2017-Jun-21 15:30N 39°52' W 075°13'0 0.0
2017-Jun-21 15:01N 39°52' W 075°13'0 0.0
2017-Jun-21 14:30N 39°52' W 075°13'1 0.6
2017-Jun-21 13:30N 39°52' W 075°14'1 1.3
2017-Jun-21 13:00N 39°52' W 075°13'2 3.7
2017-Jun-21 12:31N 39°53' W 075°11'0 0.0
2017-Jun-21 12:00N 39°53' W 075°11'0 0.0
2017-Jun-21 11:30N 39°53' W 075°11'0 0.0
2017-Jun-21 11:00N 39°53' W 075°11'0 0.0
2017-Jun-21 10:31N 39°53' W 075°11'0 0.4
2017-Jun-21 10:01N 39°53' W 075°11'2 5.0
2017-Jun-21 09:31N 39°54' W 075°08'0 0.1
2017-Jun-21 09:01N 39°54' W 075°08'0 0.6
2017-Jun-21 08:30N 39°54' W 075°08'0 0.0
2017-Jun-21 08:00N 39°54' W 075°08'0 0.0
2017-Jun-21 07:30N 39°54' W 075°08'0 0.0
2017-Jun-21 07:00N 39°54' W 075°08'0 0.0
2017-Jun-21 06:30N 39°54' W 075°08'0 0.0
2017-Jun-21 06:01N 39°54' W 075°08'0 0.0
2017-Jun-21 05:31N 39°54' W 075°08'0 0.0
2017-Jun-21 05:01N 39°54' W 075°08'0 0.0
2017-Jun-21 04:30N 39°54' W 075°08'0 0.0
2017-Jun-21 04:01N 39°54' W 075°08'0 0.0
2017-Jun-21 03:30N 39°54' W 075°08'0 0.0
2017-Jun-21 03:00N 39°54' W 075°08'2 3.2
2017-Jun-21 02:30N 39°53' W 075°10'0 0.8
2017-Jun-21 02:00N 39°53' W 075°09'0 0.1
2017-Jun-21 01:31N 39°53' W 075°09'1 1.9
2017-Jun-21 01:00N 39°53' W 075°11'1 1.2
2017-Jun-21 00:30N 39°53' W 075°11'0 0.7
2017-Jun-21 00:01N 39°53' W 075°11'0 0.0
2017-Jun-20 23:31N 39°53' W 075°11'0 0.0
2017-Jun-20 23:00N 39°53' W 075°11'0 0.0
2017-Jun-20 22:30N 39°53' W 075°11'0 0.0
2017-Jun-20 22:01N 39°53' W 075°11'0 0.0
2017-Jun-20 21:31N 39°53' W 075°11'0 0.0
2017-Jun-20 21:01N 39°53' W 075°11'0 0.0
2017-Jun-20 20:31N 39°53' W 075°11'0 0.0
2017-Jun-20 20:01N 39°53' W 075°11'3 6.2
2017-Jun-20 19:30N 39°55' W 075°08'0 0.1
2017-Jun-20 19:00N 39°55' W 075°08'3 6.0
2017-Jun-20 18:31N 39°53' W 075°11'0 0.5
2017-Jun-20 18:01N 39°53' W 075°11'0 0.0
2017-Jun-20 17:30N 39°53' W 075°11'0 0.0
2017-Jun-20 17:01N 39°53' W 075°11'0 0.0
2017-Jun-20 16:31N 39°53' W 075°11'0 0.4
2017-Jun-20 16:01N 39°53' W 075°11'0 0.3
2017-Jun-20 15:31N 39°53' W 075°12'0 0.2
2017-Jun-20 15:00N 39°53' W 075°12'0 0.2
2017-Jun-20 14:30N 39°53' W 075°11'0 0.5
2017-Jun-20 13:30N 39°53' W 075°12'1 1.6
2017-Jun-20 13:01N 39°53' W 075°11'0 0.0
2017-Jun-20 12:31N 39°53' W 075°11'0 0.0
2017-Jun-20 12:00N 39°53' W 075°11'1 1.9
2017-Jun-20 11:31N 39°53' W 075°10'2 3.7
2017-Jun-20 11:00N 39°54' W 075°08'1 1.2
2017-Jun-20 10:30N 39°54' W 075°08'1 2.2
2017-Jun-20 10:00N 39°53' W 075°09'0 1.0
2017-Jun-20 09:30N 39°53' W 075°10'1 1.7
2017-Jun-20 09:01N 39°53' W 075°11'0 0.0
2017-Jun-20 08:30N 39°53' W 075°11'0 0.0
2017-Jun-20 08:00N 39°53' W 075°11'0 0.0
2017-Jun-20 07:30N 39°53' W 075°11'0 0.0
2017-Jun-20 07:01N 39°53' W 075°11'0 0.0
2017-Jun-20 06:31N 39°53' W 075°11'0 0.0
2017-Jun-20 06:01N 39°53' W 075°11'0 0.0
2017-Jun-20 05:30N 39°53' W 075°11'0 0.0
2017-Jun-20 05:00N 39°53' W 075°11'0 0.0
2017-Jun-20 04:30N 39°53' W 075°11'0 0.0
2017-Jun-20 04:01N 39°53' W 075°11'0 0.0
2017-Jun-20 03:30N 39°53' W 075°11'0 0.0
2017-Jun-20 03:01N 39°53' W 075°11'0 0.0
2017-Jun-20 02:31N 39°53' W 075°11'0 0.0
2017-Jun-20 02:00N 39°53' W 075°11'0 0.2
2017-Jun-20 01:30N 39°53' W 075°11'0 0.1
2017-Jun-20 01:01N 39°53' W 075°11'0 0.2
2017-Jun-20 00:30N 39°53' W 075°11'0 0.0
2017-Jun-20 00:00N 39°53' W 075°11'0 0.0
2017-Jun-19 23:30N 39°53' W 075°11'0 0.0
2017-Jun-19 23:00N 39°53' W 075°11'0 0.0
2017-Jun-19 22:30N 39°53' W 075°11'0 0.0
2017-Jun-19 22:00N 39°53' W 075°11'0 0.0
2017-Jun-19 21:30N 39°53' W 075°11'2 3.8
2017-Jun-19 21:00N 39°52' W 075°13'0 0.4
2017-Jun-19 20:30N 39°52' W 075°13'0 0.0
2017-Jun-19 20:00N 39°52' W 075°13'0 0.0
2017-Jun-19 19:30N 39°52' W 075°13'0 0.0
2017-Jun-19 19:00N 39°52' W 075°13'0 0.0
2017-Jun-19 18:30N 39°52' W 075°13'0 0.0
2017-Jun-19 18:00N 39°52' W 075°13'0 0.0
2017-Jun-19 17:30N 39°52' W 075°13'0 0.0
2017-Jun-19 17:00N 39°52' W 075°13'0 0.0
2017-Jun-19 16:30N 39°52' W 075°13'4 7.7
2017-Jun-19 16:00N 39°53' W 075°09'1 2.1
2017-Jun-19 15:31N 39°54' W 075°08'2 3.5
2017-Jun-19 15:00N 39°53' W 075°10'4 4.1
2017-Jun-19 14:00N 39°51' W 075°15'5 9.2
2017-Jun-19 13:30N 39°51' W 075°20'4 8.6
2017-Jun-19 13:00N 39°48' W 075°25'0 0.0
2017-Jun-19 12:30N 39°48' W 075°25'0 0.0
2017-Jun-19 12:00N 39°48' W 075°25'1 2.2
2017-Jun-19 11:30N 39°48' W 075°26'0 0.2
2017-Jun-19 11:00N 39°48' W 075°26'1 1.3
2017-Jun-19 10:30N 39°48' W 075°26'0 0.2
2017-Jun-19 10:01N 39°48' W 075°26'0 0.0
2017-Jun-19 09:31N 39°48' W 075°26'0 0.0
2017-Jun-19 09:01N 39°48' W 075°26'0 0.0
2017-Jun-19 08:31N 39°48' W 075°26'0 0.0
2017-Jun-19 08:01N 39°48' W 075°26'0 0.0
2017-Jun-19 07:30N 39°48' W 075°26'0 0.0
2017-Jun-19 07:01N 39°48' W 075°26'0 0.0
2017-Jun-19 06:31N 39°48' W 075°26'0 0.0
2017-Jun-19 06:00N 39°48' W 075°26'0 0.0
2017-Jun-19 05:31N 39°48' W 075°26'0 0.0
2017-Jun-19 05:00N 39°48' W 075°26'0 0.0
2017-Jun-19 04:31N 39°48' W 075°26'0 0.0
2017-Jun-19 04:00N 39°48' W 075°26'0 0.0
2017-Jun-19 03:31N 39°48' W 075°26'0 0.0
2017-Jun-19 03:01N 39°48' W 075°26'0 0.0
2017-Jun-19 02:30N 39°48' W 075°26'0 0.0
2017-Jun-19 02:00N 39°48' W 075°26'0 0.0
2017-Jun-19 01:30N 39°48' W 075°26'1 2.2
2017-Jun-19 01:01N 39°49' W 075°25'0 0.2
2017-Jun-19 00:30N 39°49' W 075°24'1 1.6
2017-Jun-19 00:00N 39°49' W 075°24'3 5.3
2017-Jun-18 23:30N 39°51' W 075°21'3 6.6
2017-Jun-18 23:00N 39°51' W 075°16'0 0.6
2017-Jun-18 22:31N 39°51' W 075°16'1 2.9
2017-Jun-18 22:01N 39°51' W 075°14'3 6.2
2017-Jun-18 21:31N 39°53' W 075°11'0 0.1
2017-Jun-18 21:01N 39°53' W 075°11'0 0.0
2017-Jun-18 20:31N 39°53' W 075°11'0 0.2
2017-Jun-18 20:01N 39°53' W 075°11'0 0.0
2017-Jun-18 19:31N 39°53' W 075°11'0 0.0
2017-Jun-18 19:00N 39°53' W 075°11'0 0.0
2017-Jun-18 18:30N 39°53' W 075°11'0 0.0
2017-Jun-18 18:01N 39°53' W 075°11'0 0.0
2017-Jun-18 17:30N 39°53' W 075°11'0 0.0
2017-Jun-18 17:00N 39°53' W 075°11'0 0.0
2017-Jun-18 16:30N 39°53' W 075°11'0 0.0
2017-Jun-18 16:00N 39°53' W 075°11'0 0.0
2017-Jun-18 15:30N 39°53' W 075°11'0 0.0
2017-Jun-18 15:00N 39°53' W 075°11'0 0.0
2017-Jun-18 14:00N 39°53' W 075°11'0 0.0
2017-Jun-18 13:30N 39°53' W 075°11'0 0.0
2017-Jun-18 13:00N 39°53' W 075°11'0 0.0
2017-Jun-18 12:30N 39°53' W 075°11'0 0.0
2017-Jun-18 12:00N 39°53' W 075°11'0 0.0
2017-Jun-18 11:30N 39°53' W 075°11'0 0.0
2017-Jun-18 11:00N 39°53' W 075°11'0 0.0
2017-Jun-18 10:30N 39°53' W 075°11'0 0.0
2017-Jun-18 10:00N 39°53' W 075°11'0 0.0
2017-Jun-18 09:30N 39°53' W 075°11'0 0.0
2017-Jun-18 09:00N 39°53' W 075°11'0 0.0
2017-Jun-18 08:30N 39°53' W 075°11'0 0.0
2017-Jun-18 08:01N 39°53' W 075°11'0 0.0
2017-Jun-18 07:31N 39°53' W 075°11'0 0.0
2017-Jun-18 07:00N 39°53' W 075°11'0 0.0
2017-Jun-18 06:30N 39°53' W 075°11'0 0.0
2017-Jun-18 06:00N 39°53' W 075°11'0 0.0
2017-Jun-18 05:30N 39°53' W 075°11'0 0.0
2017-Jun-18 05:00N 39°53' W 075°11'0 0.0
2017-Jun-18 04:30N 39°53' W 075°11'0 0.0
2017-Jun-18 04:00N 39°53' W 075°11'0 0.0
2017-Jun-18 03:30N 39°53' W 075°11'0 0.0
2017-Jun-18 03:01N 39°53' W 075°11'0 0.0
2017-Jun-18 02:30N 39°53' W 075°11'0 0.0
2017-Jun-18 02:01N 39°53' W 075°11'0 0.0
2017-Jun-18 01:31N 39°53' W 075°11'0 0.0
2017-Jun-18 01:01N 39°53' W 075°11'0 0.0
2017-Jun-18 00:30N 39°53' W 075°11'0 0.0
2017-Jun-18 00:01N 39°53' W 075°11'0 0.0
2017-Jun-17 23:31N 39°53' W 075°11'0 0.0
2017-Jun-17 23:01N 39°53' W 075°11'0 0.0
2017-Jun-17 22:30N 39°53' W 075°11'0 0.0
2017-Jun-17 22:01N 39°53' W 075°11'0 0.0
2017-Jun-17 21:30N 39°53' W 075°11'0 0.0
2017-Jun-17 21:01N 39°53' W 075°11'0 0.0
2017-Jun-17 20:31N 39°53' W 075°11'0 0.0
2017-Jun-17 20:01N 39°53' W 075°11'0 0.0
2017-Jun-17 19:30N 39°53' W 075°11'0 0.0
2017-Jun-17 19:00N 39°53' W 075°11'0 0.0
2017-Jun-17 18:31N 39°53' W 075°11'0 0.0
2017-Jun-17 18:00N 39°53' W 075°11'0 0.0
2017-Jun-17 17:31N 39°53' W 075°11'0 0.0
2017-Jun-17 17:01N 39°53' W 075°11'0 0.0
2017-Jun-17 16:30N 39°53' W 075°11'0 0.0
2017-Jun-17 16:00N 39°53' W 075°11'0 0.0
2017-Jun-17 15:31N 39°53' W 075°11'0 0.0
2017-Jun-17 15:01N 39°53' W 075°11'4 7.0
2017-Jun-17 14:31N 39°51' W 075°15'1 1.1
2017-Jun-17 13:30N 39°51' W 075°16'0 0.7
2017-Jun-17 13:01N 39°51' W 075°16'0 0.0
2017-Jun-17 12:30N 39°51' W 075°16'0 0.0
2017-Jun-17 12:01N 39°51' W 075°16'0 0.0
2017-Jun-17 11:30N 39°51' W 075°16'3 6.2
2017-Jun-17 11:01N 39°51' W 075°20'5 9.7
2017-Jun-17 10:30N 39°48' W 075°25'0 0.0
2017-Jun-17 10:00N 39°48' W 075°25'0 0.0
2017-Jun-17 09:30N 39°48' W 075°25'0 0.2
2017-Jun-17 09:01N 39°48' W 075°25'2 3.6
2017-Jun-17 08:30N 39°47' W 075°27'1 2.9
2017-Jun-17 08:00N 39°48' W 075°26'0 0.5
2017-Jun-17 07:30N 39°48' W 075°26'0 0.0
2017-Jun-17 07:00N 39°48' W 075°26'0 0.0
2017-Jun-17 06:30N 39°48' W 075°26'0 0.0
2017-Jun-17 06:00N 39°48' W 075°26'0 0.0
2017-Jun-17 05:30N 39°48' W 075°26'0 0.0
2017-Jun-17 05:00N 39°48' W 075°26'0 0.0
2017-Jun-17 04:30N 39°48' W 075°26'0 0.0
2017-Jun-17 04:00N 39°48' W 075°26'0 0.0
2017-Jun-17 03:31N 39°48' W 075°26'0 0.0
2017-Jun-17 03:00N 39°48' W 075°26'0 0.0
2017-Jun-17 02:30N 39°48' W 075°26'0 0.0
2017-Jun-17 02:00N 39°48' W 075°26'0 0.0
2017-Jun-17 01:31N 39°48' W 075°26'0 0.0
2017-Jun-17 01:00N 39°48' W 075°26'0 0.0
2017-Jun-17 00:30N 39°48' W 075°26'0 0.0
2017-Jun-17 00:00N 39°48' W 075°26'0 0.0
2017-Jun-16 23:31N 39°48' W 075°26'0 0.0
2017-Jun-16 23:00N 39°48' W 075°26'1 2.4
2017-Jun-16 22:30N 39°49' W 075°24'0 0.0
2017-Jun-16 22:00N 39°49' W 075°24'0 0.0
2017-Jun-16 21:31N 39°49' W 075°24'1 1.5
2017-Jun-16 21:00N 39°48' W 075°25'0 0.8
2017-Jun-16 20:30N 39°48' W 075°25'0 0.8
2017-Jun-16 20:00N 39°49' W 075°24'1 1.5
2017-Jun-16 19:30N 39°49' W 075°24'4 8.4
2017-Jun-16 19:00N 39°51' W 075°19'4 7.8
2017-Jun-16 18:31N 39°52' W 075°14'3 5.0
2017-Jun-16 18:00N 39°53' W 075°11'0 0.0
2017-Jun-16 17:30N 39°53' W 075°11'0 0.0
2017-Jun-16 17:00N 39°53' W 075°11'0 0.0
2017-Jun-16 16:30N 39°53' W 075°11'0 0.0
2017-Jun-16 16:01N 39°53' W 075°11'0 0.0
2017-Jun-16 15:31N 39°53' W 075°11'0 0.0
2017-Jun-16 15:00N 39°53' W 075°11'0 0.0
2017-Jun-16 14:31N 39°53' W 075°11'0 0.0
2017-Jun-16 13:31N 39°53' W 075°11'0 0.0
2017-Jun-16 13:01N 39°53' W 075°11'0 0.0
2017-Jun-16 12:30N 39°53' W 075°11'0 0.0
2017-Jun-16 12:00N 39°53' W 075°11'0 0.0
2017-Jun-16 11:31N 39°53' W 075°11'0 0.7
2017-Jun-16 11:01N 39°53' W 075°11'0 0.5
2017-Jun-16 10:30N 39°53' W 075°12'0 0.0
2017-Jun-16 10:00N 39°53' W 075°12'0 0.6
2017-Jun-16 09:30N 39°53' W 075°11'0 0.0
2017-Jun-16 09:01N 39°53' W 075°11'0 0.0
2017-Jun-16 08:30N 39°53' W 075°11'0 0.0
2017-Jun-16 08:00N 39°53' W 075°11'0 0.0
2017-Jun-16 07:30N 39°53' W 075°11'0 0.0
2017-Jun-16 07:00N 39°53' W 075°11'0 0.0
2017-Jun-16 06:31N 39°53' W 075°11'0 0.0
2017-Jun-16 06:01N 39°53' W 075°11'0 0.0
2017-Jun-16 05:31N 39°53' W 075°11'0 0.0
2017-Jun-16 05:01N 39°53' W 075°11'0 0.0
2017-Jun-16 04:30N 39°53' W 075°11'0 0.0
2017-Jun-16 04:01N 39°53' W 075°11'0 0.0
2017-Jun-16 03:31N 39°53' W 075°11'0 0.0
2017-Jun-16 03:00N 39°53' W 075°11'0 0.0
2017-Jun-16 02:30N 39°53' W 075°11'0 0.0
2017-Jun-16 02:01N 39°53' W 075°11'0 0.0
2017-Jun-16 01:30N 39°53' W 075°11'0 0.0
2017-Jun-16 01:01N 39°53' W 075°11'2 4.3
2017-Jun-16 00:30N 39°54' W 075°08'0 0.1
2017-Jun-16 00:01N 39°54' W 075°08'2 4.1
2017-Jun-15 23:31N 39°53' W 075°11'0 0.8
2017-Jun-15 23:00N 39°53' W 075°11'0 0.0
2017-Jun-15 22:30N 39°53' W 075°11'0 0.0
2017-Jun-15 22:01N 39°53' W 075°11'0 0.0
2017-Jun-15 21:30N 39°53' W 075°11'0 0.0
2017-Jun-15 21:00N 39°53' W 075°11'0 0.0
2017-Jun-15 20:30N 39°53' W 075°11'2 3.0
2017-Jun-15 20:00N 39°53' W 075°09'4 7.4
2017-Jun-15 19:30N 39°57' W 075°08'4 7.7
2017-Jun-15 19:00N 39°59' W 075°04'4 8.2
2017-Jun-15 18:30N 40°02' W 075°00'510.5
2017-Jun-15 18:00N 40°04' W 074°54'1 0.4
2017-Jun-15 14:34N 40°05' W 074°53'4 7.7
2017-Jun-15 14:00N 40°03' W 074°58'4 8.5
2017-Jun-15 13:30N 40°01' W 075°03'3 7.0
2017-Jun-15 13:00N 39°58' W 075°06'4 7.5
2017-Jun-15 12:31N 39°55' W 075°08'3 5.9
2017-Jun-15 12:01N 39°53' W 075°11'5 9.0
2017-Jun-15 11:30N 39°57' W 075°08'3 5.1
2017-Jun-15 11:00N 39°59' W 075°06'0 0.6
2017-Jun-15 10:30N 39°58' W 075°06'2 4.0
2017-Jun-15 10:01N 39°57' W 075°08'2 4.6
2017-Jun-15 09:31N 39°59' W 075°06'0 0.1
2017-Jun-15 09:00N 39°59' W 075°05'0 0.0
2017-Jun-15 08:30N 39°59' W 075°05'0 0.0
2017-Jun-15 08:00N 39°59' W 075°05'0 0.0
2017-Jun-15 07:31N 39°59' W 075°05'0 0.0
2017-Jun-15 07:00N 39°59' W 075°05'0 0.0
2017-Jun-15 06:30N 39°59' W 075°05'1 2.2
2017-Jun-15 06:00N 39°58' W 075°07'5 9.4
2017-Jun-15 05:30N 39°54' W 075°08'0 0.2
2017-Jun-15 05:01N 39°54' W 075°08'0 0.6
2017-Jun-15 04:31N 39°53' W 075°08'1 1.0
2017-Jun-15 04:00N 39°54' W 075°08'0 0.0
2017-Jun-15 03:30N 39°54' W 075°08'0 0.0
2017-Jun-15 03:01N 39°54' W 075°08'0 0.0
2017-Jun-15 02:30N 39°54' W 075°08'0 0.0
2017-Jun-15 02:01N 39°54' W 075°08'5 9.5
2017-Jun-15 01:31N 39°58' W 075°06'1 2.8
2017-Jun-15 01:00N 39°59' W 075°04'0 0.0
2017-Jun-15 00:30N 39°59' W 075°04'1 1.7
2017-Jun-15 00:01N 39°59' W 075°05'0 0.1
2017-Jun-14 23:30N 39°59' W 075°05'0 0.0
2017-Jun-14 23:00N 39°59' W 075°05'0 0.0
2017-Jun-14 22:30N 39°59' W 075°05'1 1.5
2017-Jun-14 22:00N 39°58' W 075°06'5 9.3
2017-Jun-14 21:30N 39°54' W 075°08'0 0.4
2017-Jun-14 21:00N 39°54' W 075°08'2 3.8
2017-Jun-14 20:30N 39°53' W 075°10'1 1.7
2017-Jun-14 20:00N 39°53' W 075°11'0 0.0
2017-Jun-14 19:30N 39°53' W 075°11'0 0.0
2017-Jun-14 19:00N 39°53' W 075°11'0 0.0
2017-Jun-14 18:31N 39°53' W 075°11'1 2.6
2017-Jun-14 18:00N 39°52' W 075°12'0 0.2
2017-Jun-14 17:30N 39°52' W 075°12'1 2.6
2017-Jun-14 17:00N 39°53' W 075°11'0 0.0
2017-Jun-14 16:30N 39°53' W 075°11'0 0.0
2017-Jun-14 16:00N 39°53' W 075°11'0 0.0
2017-Jun-14 15:30N 39°53' W 075°11'0 0.0
2017-Jun-14 15:01N 39°53' W 075°11'0 0.0
2017-Jun-14 14:30N 39°53' W 075°11'0 0.0
2017-Jun-14 13:31N 39°53' W 075°11'0 0.0
2017-Jun-14 13:01N 39°53' W 075°11'0 0.0
2017-Jun-14 12:30N 39°53' W 075°11'0 0.0
2017-Jun-14 12:00N 39°53' W 075°11'0 0.0
2017-Jun-14 11:30N 39°53' W 075°11'0 0.0
2017-Jun-14 11:01N 39°53' W 075°11'0 0.0
2017-Jun-14 10:30N 39°53' W 075°11'0 0.0
2017-Jun-14 10:00N 39°53' W 075°11'0 0.0
2017-Jun-14 09:30N 39°53' W 075°11'0 0.0
2017-Jun-14 09:00N 39°53' W 075°11'0 0.0
2017-Jun-14 08:30N 39°53' W 075°11'0 0.0
2017-Jun-14 08:00N 39°53' W 075°11'0 0.0
2017-Jun-14 07:30N 39°53' W 075°11'0 0.0
2017-Jun-14 07:00N 39°53' W 075°11'0 0.0
2017-Jun-14 06:30N 39°53' W 075°11'0 0.0
2017-Jun-14 06:00N 39°53' W 075°11'0 0.0
2017-Jun-14 05:30N 39°53' W 075°11'3 5.2
2017-Jun-14 05:01N 39°54' W 075°08'0 0.6
2017-Jun-14 04:30N 39°54' W 075°08'1 2.9
2017-Jun-14 04:01N 39°53' W 075°10'1 2.1
2017-Jun-14 03:31N 39°53' W 075°11'0 0.4
2017-Jun-14 03:00N 39°53' W 075°11'0 0.0
2017-Jun-14 02:31N 39°53' W 075°11'0 0.0
2017-Jun-14 02:00N 39°53' W 075°11'0 0.0
2017-Jun-14 01:30N 39°53' W 075°11'0 0.0
2017-Jun-14 01:01N 39°53' W 075°11'0 0.0
2017-Jun-14 00:31N 39°53' W 075°11'0 0.0
2017-Jun-14 00:01N 39°53' W 075°11'0 0.0
2017-Jun-13 23:31N 39°53' W 075°11'0 0.0
2017-Jun-13 23:01N 39°53' W 075°11'0 0.0
2017-Jun-13 22:30N 39°53' W 075°11'2 4.1
2017-Jun-13 22:00N 39°52' W 075°13'2 5.0
2017-Jun-13 21:30N 39°51' W 075°16'0 0.1
2017-Jun-13 21:00N 39°51' W 075°16'2 4.2
2017-Jun-13 20:30N 39°52' W 075°14'2 4.9
2017-Jun-13 20:00N 39°53' W 075°11'0 0.0
2017-Jun-13 19:30N 39°53' W 075°11'0 0.0
2017-Jun-13 19:00N 39°53' W 075°11'0 0.0
2017-Jun-13 18:30N 39°53' W 075°11'0 0.0
2017-Jun-13 18:01N 39°53' W 075°11'0 0.0
2017-Jun-13 17:31N 39°53' W 075°11'0 0.0
2017-Jun-13 17:01N 39°53' W 075°11'0 0.0
2017-Jun-13 16:31N 39°53' W 075°11'0 0.0
2017-Jun-13 16:00N 39°53' W 075°11'0 0.0
2017-Jun-13 15:31N 39°53' W 075°11'0 0.0
2017-Jun-13 15:00N 39°53' W 075°11'0 0.0
2017-Jun-13 14:00N 39°53' W 075°11'0 0.0
2017-Jun-13 13:30N 39°53' W 075°11'0 0.0
2017-Jun-13 13:00N 39°53' W 075°11'0 0.0
2017-Jun-13 12:31N 39°53' W 075°11'0 0.0
2017-Jun-13 12:01N 39°53' W 075°11'0 0.0
2017-Jun-13 11:30N 39°53' W 075°11'0 0.0
2017-Jun-13 11:00N 39°53' W 075°11'  

Dump ship's entire track history